sensor_id;sensor_type;location;lat;lon;timestamp;temperature;humidity
3628;DHT22;1830;49.000;12.074;2023-06-26T00:00:08;18.90;99.90
3628;DHT22;1830;49.000;12.074;2023-06-26T00:02:36;18.80;99.90
3628;DHT22;1830;49.000;12.074;2023-06-26T00:05:04;18.80;99.90
3628;DHT22;1830;49.000;12.074;2023-06-26T00:07:32;18.70;99.90
3628;DHT22;1830;49.000;12.074;2023-06-26T00:10:00;18.70;99.90
3628;DHT22;1830;49.000;12.074;2023-06-26T00:12:28;18.70;99.90
3628;DHT22;1830;49.000;12.074;2023-06-26T00:14:56;18.70;99.90
3628;DHT22;1830;49.000;12.074;2023-06-26T00:17:23;18.70;99.90
3628;DHT22;1830;49.000;12.074;2023-06-26T00:19:50;18.70;99.90
3628;DHT22;1830;49.000;12.074;2023-06-26T00:22:17;18.70;99.90
3628;DHT22;1830;49.000;12.074;2023-06-26T00:24:44;18.70;99.90
3628;DHT22;1830;49.000;12.074;2023-06-26T00:27:11;18.70;99.90
3628;DHT22;1830;49.000;12.074;2023-06-26T00:29:37;18.70;99.90
3628;DHT22;1830;49.000;12.074;2023-06-26T00:32:06;18.60;99.90
3628;DHT22;1830;49.000;12.074;2023-06-26T00:34:33;18.50;99.90
3628;DHT22;1830;49.000;12.074;2023-06-26T00:37:00;18.40;99.90
3628;DHT22;1830;49.000;12.074;2023-06-26T00:39:26;18.40;99.90
3628;DHT22;1830;49.000;12.074;2023-06-26T00:41:53;18.40;99.90
3628;DHT22;1830;49.000;12.074;2023-06-26T00:44:20;18.40;99.90
3628;DHT22;1830;49.000;12.074;2023-06-26T00:46:47;18.30;99.90
3628;DHT22;1830;49.000;12.074;2023-06-26T00:49:16;18.30;99.90
3628;DHT22;1830;49.000;12.074;2023-06-26T00:51:44;18.20;99.90
3628;DHT22;1830;49.000;12.074;2023-06-26T00:54:11;18.20;99.90
3628;DHT22;1830;49.000;12.074;2023-06-26T00:56:40;18.20;99.90
3628;DHT22;1830;49.000;12.074;2023-06-26T00:59:07;18.20;99.90
3628;DHT22;1830;49.000;12.074;2023-06-26T01:01:33;18.20;99.90
3628;DHT22;1830;49.000;12.074;2023-06-26T01:04:00;18.20;99.90
3628;DHT22;1830;49.000;12.074;2023-06-26T01:06:29;18.20;99.90
3628;DHT22;1830;49.000;12.074;2023-06-26T01:09:01;18.20;99.90
3628;DHT22;1830;49.000;12.074;2023-06-26T01:11:28;18.10;99.90
3628;DHT22;1830;49.000;12.074;2023-06-26T01:13:56;18.10;99.90
3628;DHT22;1830;49.000;12.074;2023-06-26T01:16:24;18.00;99.90
3628;DHT22;1830;49.000;12.074;2023-06-26T01:18:52;18.10;99.90
3628;DHT22;1830;49.000;12.074;2023-06-26T01:21:19;17.90;99.90
3628;DHT22;1830;49.000;12.074;2023-06-26T01:23:58;17.90;99.90
3628;DHT22;1830;49.000;12.074;2023-06-26T01:26:28;17.90;99.90
3628;DHT22;1830;49.000;12.074;2023-06-26T01:28:57;17.80;99.90
3628;DHT22;1830;49.000;12.074;2023-06-26T01:31:26;17.70;99.90
3628;DHT22;1830;49.000;12.074;2023-06-26T01:33:54;17.70;99.90
3628;DHT22;1830;49.000;12.074;2023-06-26T01:36:22;17.60;99.90
3628;DHT22;1830;49.000;12.074;2023-06-26T01:38:49;17.60;99.90
3628;DHT22;1830;49.000;12.074;2023-06-26T01:41:16;17.50;99.90
3628;DHT22;1830;49.000;12.074;2023-06-26T01:44:13;17.50;99.90
3628;DHT22;1830;49.000;12.074;2023-06-26T01:46:47;17.50;99.90
3628;DHT22;1830;49.000;12.074;2023-06-26T01:49:20;17.60;99.90
3628;DHT22;1830;49.000;12.074;2023-06-26T01:51:54;17.60;99.90
3628;DHT22;1830;49.000;12.074;2023-06-26T01:54:23;17.60;99.90
3628;DHT22;1830;49.000;12.074;2023-06-26T01:56:53;17.60;99.90
3628;DHT22;1830;49.000;12.074;2023-06-26T01:59:22;17.50;99.90
3628;DHT22;1830;49.000;12.074;2023-06-26T02:01:50;17.50;99.90
3628;DHT22;1830;49.000;12.074;2023-06-26T02:04:18;17.40;99.90
3628;DHT22;1830;49.000;12.074;2023-06-26T02:06:45;17.40;99.90
3628;DHT22;1830;49.000;12.074;2023-06-26T02:09:12;17.40;99.90
3628;DHT22;1830;49.000;12.074;2023-06-26T02:11:39;17.30;99.90
3628;DHT22;1830;49.000;12.074;2023-06-26T02:14:05;17.30;99.90
3628;DHT22;1830;49.000;12.074;2023-06-26T02:16:36;17.30;99.90
3628;DHT22;1830;49.000;12.074;2023-06-26T02:19:02;17.20;99.90
3628;DHT22;1830;49.000;12.074;2023-06-26T02:21:29;17.10;99.90
3628;DHT22;1830;49.000;12.074;2023-06-26T02:23:56;17.00;99.90
3628;DHT22;1830;49.000;12.074;2023-06-26T02:26:22;17.00;99.90
3628;DHT22;1830;49.000;12.074;2023-06-26T02:28:50;17.00;99.90
3628;DHT22;1830;49.000;12.074;2023-06-26T02:31:16;17.00;99.90
3628;DHT22;1830;49.000;12.074;2023-06-26T02:33:44;17.00;99.90
3628;DHT22;1830;49.000;12.074;2023-06-26T02:36:11;16.90;99.90
3628;DHT22;1830;49.000;12.074;2023-06-26T02:38:38;16.90;99.90
3628;DHT22;1830;49.000;12.074;2023-06-26T02:41:05;16.90;99.90
3628;DHT22;1830;49.000;12.074;2023-06-26T02:43:32;16.80;99.90
3628;DHT22;1830;49.000;12.074;2023-06-26T02:45:58;16.70;99.90
3628;DHT22;1830;49.000;12.074;2023-06-26T02:48:25;16.70;99.90
3628;DHT22;1830;49.000;12.074;2023-06-26T02:50:53;16.80;99.90
3628;DHT22;1830;49.000;12.074;2023-06-26T02:53:20;16.70;99.90
3628;DHT22;1830;49.000;12.074;2023-06-26T02:55:46;16.60;99.90
3628;DHT22;1830;49.000;12.074;2023-06-26T02:58:13;16.60;99.90
3628;DHT22;1830;49.000;12.074;2023-06-26T03:00:40;16.70;99.90
3628;DHT22;1830;49.000;12.074;2023-06-26T03:03:07;16.80;99.90
3628;DHT22;1830;49.000;12.074;2023-06-26T03:05:33;16.80;99.90
3628;DHT22;1830;49.000;12.074;2023-06-26T03:08:02;16.70;99.90
3628;DHT22;1830;49.000;12.074;2023-06-26T03:10:29;16.70;99.90
3628;DHT22;1830;49.000;12.074;2023-06-26T03:12:56;16.70;99.90
3628;DHT22;1830;49.000;12.074;2023-06-26T03:15:22;16.70;99.90
3628;DHT22;1830;49.000;12.074;2023-06-26T03:17:49;16.80;99.90
3628;DHT22;1830;49.000;12.074;2023-06-26T03:20:16;16.70;99.90
3628;DHT22;1830;49.000;12.074;2023-06-26T03:22:43;16.70;99.90
3628;DHT22;1830;49.000;12.074;2023-06-26T03:25:11;16.70;99.90
3628;DHT22;1830;49.000;12.074;2023-06-26T03:27:38;16.60;99.90
3628;DHT22;1830;49.000;12.074;2023-06-26T03:30:05;16.70;99.90
3628;DHT22;1830;49.000;12.074;2023-06-26T03:32:32;16.60;99.90
3628;DHT22;1830;49.000;12.074;2023-06-26T03:34:58;16.60;99.90
3628;DHT22;1830;49.000;12.074;2023-06-26T03:37:27;16.50;99.90
3628;DHT22;1830;49.000;12.074;2023-06-26T03:39:54;16.50;99.90
3628;DHT22;1830;49.000;12.074;2023-06-26T03:42:22;16.50;99.90
3628;DHT22;1830;49.000;12.074;2023-06-26T03:44:48;16.40;99.90
3628;DHT22;1830;49.000;12.074;2023-06-26T03:47:15;16.50;99.90
3628;DHT22;1830;49.000;12.074;2023-06-26T03:49:42;16.60;99.90
3628;DHT22;1830;49.000;12.074;2023-06-26T03:52:09;16.60;99.90
3628;DHT22;1830;49.000;12.074;2023-06-26T03:54:35;16.60;99.90
3628;DHT22;1830;49.000;12.074;2023-06-26T03:57:03;16.60;99.90
3628;DHT22;1830;49.000;12.074;2023-06-26T03:59:31;16.60;99.90
3628;DHT22;1830;49.000;12.074;2023-06-26T04:01:57;16.60;99.90
3628;DHT22;1830;49.000;12.074;2023-06-26T04:04:24;16.60;99.90
3628;DHT22;1830;49.000;12.074;2023-06-26T04:06:51;16.60;99.90
3628;DHT22;1830;49.000;12.074;2023-06-26T04:09:18;16.90;99.90
3628;DHT22;1830;49.000;12.074;2023-06-26T04:11:45;16.80;99.90
3628;DHT22;1830;49.000;12.074;2023-06-26T04:14:11;16.80;99.90
3628;DHT22;1830;49.000;12.074;2023-06-26T04:16:39;16.80;99.90
3628;DHT22;1830;49.000;12.074;2023-06-26T04:19:06;16.90;99.90
3628;DHT22;1830;49.000;12.074;2023-06-26T04:21:33;16.90;99.90
3628;DHT22;1830;49.000;12.074;2023-06-26T04:24:00;16.90;99.90
3628;DHT22;1830;49.000;12.074;2023-06-26T04:26:27;16.90;99.90
3628;DHT22;1830;49.000;12.074;2023-06-26T04:28:54;17.00;99.90
3628;DHT22;1830;49.000;12.074;2023-06-26T04:31:21;17.00;99.90
3628;DHT22;1830;49.000;12.074;2023-06-26T04:33:49;17.10;99.90
3628;DHT22;1830;49.000;12.074;2023-06-26T04:36:16;17.10;99.90
3628;DHT22;1830;49.000;12.074;2023-06-26T04:38:43;17.20;99.90
3628;DHT22;1830;49.000;12.074;2023-06-26T04:41:10;17.30;99.90
3628;DHT22;1830;49.000;12.074;2023-06-26T04:43:37;17.30;99.90
3628;DHT22;1830;49.000;12.074;2023-06-26T04:46:04;17.40;99.90
3628;DHT22;1830;49.000;12.074;2023-06-26T04:48:31;17.40;99.90
3628;DHT22;1830;49.000;12.074;2023-06-26T04:50:59;17.50;99.90
3628;DHT22;1830;49.000;12.074;2023-06-26T04:53:26;17.60;99.90
3628;DHT22;1830;49.000;12.074;2023-06-26T04:55:53;17.70;99.90
3628;DHT22;1830;49.000;12.074;2023-06-26T04:58:20;17.70;99.90
3628;DHT22;1830;49.000;12.074;2023-06-26T05:00:47;17.80;99.90
3628;DHT22;1830;49.000;12.074;2023-06-26T05:03:15;17.90;99.90
3628;DHT22;1830;49.000;12.074;2023-06-26T05:05:42;17.90;99.90
3628;DHT22;1830;49.000;12.074;2023-06-26T05:08:17;18.00;99.90
3628;DHT22;1830;49.000;12.074;2023-06-26T05:10:44;18.10;99.90
3628;DHT22;1830;49.000;12.074;2023-06-26T05:13:12;18.20;99.90
3628;DHT22;1830;49.000;12.074;2023-06-26T05:15:40;18.30;99.90
3628;DHT22;1830;49.000;12.074;2023-06-26T05:18:07;18.30;99.90
3628;DHT22;1830;49.000;12.074;2023-06-26T05:20:34;18.40;99.90
3628;DHT22;1830;49.000;12.074;2023-06-26T05:23:02;18.40;99.90
3628;DHT22;1830;49.000;12.074;2023-06-26T05:25:31;18.40;99.90
3628;DHT22;1830;49.000;12.074;2023-06-26T05:27:59;18.50;99.90
3628;DHT22;1830;49.000;12.074;2023-06-26T05:30:27;18.50;99.90
3628;DHT22;1830;49.000;12.074;2023-06-26T05:32:56;18.60;99.90
3628;DHT22;1830;49.000;12.074;2023-06-26T05:35:28;18.60;99.90
3628;DHT22;1830;49.000;12.074;2023-06-26T05:37:56;18.70;99.90
3628;DHT22;1830;49.000;12.074;2023-06-26T05:40:23;18.70;99.90
3628;DHT22;1830;49.000;12.074;2023-06-26T05:42:52;18.80;99.90
3628;DHT22;1830;49.000;12.074;2023-06-26T05:45:19;18.80;99.90
3628;DHT22;1830;49.000;12.074;2023-06-26T05:47:45;18.90;99.90
3628;DHT22;1830;49.000;12.074;2023-06-26T05:50:14;18.90;99.90
3628;DHT22;1830;49.000;12.074;2023-06-26T05:52:41;19.00;99.90
3628;DHT22;1830;49.000;12.074;2023-06-26T05:55:10;19.10;99.90
3628;DHT22;1830;49.000;12.074;2023-06-26T05:57:37;19.10;99.90
3628;DHT22;1830;49.000;12.074;2023-06-26T06:00:08;19.20;99.90
3628;DHT22;1830;49.000;12.074;2023-06-26T06:02:36;19.20;99.90
3628;DHT22;1830;49.000;12.074;2023-06-26T06:05:03;19.30;99.90
3628;DHT22;1830;49.000;12.074;2023-06-26T06:07:31;19.30;99.90
3628;DHT22;1830;49.000;12.074;2023-06-26T06:09:58;19.40;99.90
3628;DHT22;1830;49.000;12.074;2023-06-26T06:12:24;19.50;99.90
3628;DHT22;1830;49.000;12.074;2023-06-26T06:14:51;19.50;99.90
3628;DHT22;1830;49.000;12.074;2023-06-26T06:17:20;19.50;99.90
3628;DHT22;1830;49.000;12.074;2023-06-26T06:19:51;19.60;99.90
3628;DHT22;1830;49.000;12.074;2023-06-26T06:22:17;19.60;99.90
3628;DHT22;1830;49.000;12.074;2023-06-26T06:24:44;19.60;99.90
3628;DHT22;1830;49.000;12.074;2023-06-26T06:27:11;19.70;99.90
3628;DHT22;1830;49.000;12.074;2023-06-26T06:29:38;19.70;99.90
3628;DHT22;1830;49.000;12.074;2023-06-26T06:32:06;19.70;99.90
3628;DHT22;1830;49.000;12.074;2023-06-26T06:34:34;19.70;99.90
3628;DHT22;1830;49.000;12.074;2023-06-26T06:37:02;19.80;99.90
3628;DHT22;1830;49.000;12.074;2023-06-26T06:39:28;19.80;99.90
3628;DHT22;1830;49.000;12.074;2023-06-26T06:41:55;19.90;99.90
3628;DHT22;1830;49.000;12.074;2023-06-26T06:44:22;20.00;99.90
3628;DHT22;1830;49.000;12.074;2023-06-26T06:46:49;20.10;99.90
3628;DHT22;1830;49.000;12.074;2023-06-26T06:49:16;20.10;99.90
3628;DHT22;1830;49.000;12.074;2023-06-26T06:51:44;20.20;99.90
3628;DHT22;1830;49.000;12.074;2023-06-26T06:54:11;20.20;99.90
3628;DHT22;1830;49.000;12.074;2023-06-26T06:56:37;20.20;99.90
3628;DHT22;1830;49.000;12.074;2023-06-26T06:59:04;20.20;99.90
3628;DHT22;1830;49.000;12.074;2023-06-26T07:01:31;20.30;99.90
3628;DHT22;1830;49.000;12.074;2023-06-26T07:03:58;20.40;99.90
3628;DHT22;1830;49.000;12.074;2023-06-26T07:06:25;20.50;99.90
3628;DHT22;1830;49.000;12.074;2023-06-26T07:08:53;20.50;99.90
3628;DHT22;1830;49.000;12.074;2023-06-26T07:11:20;20.60;99.90
3628;DHT22;1830;49.000;12.074;2023-06-26T07:13:47;20.60;99.90
3628;DHT22;1830;49.000;12.074;2023-06-26T07:16:14;20.60;99.90
3628;DHT22;1830;49.000;12.074;2023-06-26T07:18:40;20.70;99.90
3628;DHT22;1830;49.000;12.074;2023-06-26T07:21:08;20.80;99.90
3628;DHT22;1830;49.000;12.074;2023-06-26T07:23:35;20.80;99.90
3628;DHT22;1830;49.000;12.074;2023-06-26T07:26:03;20.90;99.90
3628;DHT22;1830;49.000;12.074;2023-06-26T07:28:30;21.00;99.90
3628;DHT22;1830;49.000;12.074;2023-06-26T07:30:57;21.00;99.90
3628;DHT22;1830;49.000;12.074;2023-06-26T07:33:24;21.10;99.90
3628;DHT22;1830;49.000;12.074;2023-06-26T07:35:50;21.20;99.90
3628;DHT22;1830;49.000;12.074;2023-06-26T07:38:17;21.30;99.90
3628;DHT22;1830;49.000;12.074;2023-06-26T07:40:44;21.30;99.90
3628;DHT22;1830;49.000;12.074;2023-06-26T07:43:12;21.50;99.90
3628;DHT22;1830;49.000;12.074;2023-06-26T07:45:39;21.50;99.90
3628;DHT22;1830;49.000;12.074;2023-06-26T07:48:06;21.60;99.90
3628;DHT22;1830;49.000;12.074;2023-06-26T07:50:34;21.70;99.90
3628;DHT22;1830;49.000;12.074;2023-06-26T07:53:01;21.80;99.90
3628;DHT22;1830;49.000;12.074;2023-06-26T07:55:28;21.90;99.90
3628;DHT22;1830;49.000;12.074;2023-06-26T07:57:54;21.90;99.90
3628;DHT22;1830;49.000;12.074;2023-06-26T08:00:23;22.00;99.90
3628;DHT22;1830;49.000;12.074;2023-06-26T08:02:50;22.10;99.90
3628;DHT22;1830;49.000;12.074;2023-06-26T08:05:16;22.20;99.90
3628;DHT22;1830;49.000;12.074;2023-06-26T08:07:43;22.20;99.90
3628;DHT22;1830;49.000;12.074;2023-06-26T08:10:10;22.30;99.90
3628;DHT22;1830;49.000;12.074;2023-06-26T08:12:37;22.30;99.90
3628;DHT22;1830;49.000;12.074;2023-06-26T08:15:06;22.40;99.90
3628;DHT22;1830;49.000;12.074;2023-06-26T08:17:34;22.50;99.90
3628;DHT22;1830;49.000;12.074;2023-06-26T08:20:02;22.60;99.90
3628;DHT22;1830;49.000;12.074;2023-06-26T08:22:29;22.70;99.90
3628;DHT22;1830;49.000;12.074;2023-06-26T08:24:56;22.70;99.90
3628;DHT22;1830;49.000;12.074;2023-06-26T08:27:23;22.90;99.90
3628;DHT22;1830;49.000;12.074;2023-06-26T08:29:49;22.90;99.90
3628;DHT22;1830;49.000;12.074;2023-06-26T08:32:16;22.90;99.90
3628;DHT22;1830;49.000;12.074;2023-06-26T08:34:44;23.00;99.90
3628;DHT22;1830;49.000;12.074;2023-06-26T08:37:11;23.00;99.90
3628;DHT22;1830;49.000;12.074;2023-06-26T08:39:38;23.20;99.90
3628;DHT22;1830;49.000;12.074;2023-06-26T08:42:05;23.20;99.90
3628;DHT22;1830;49.000;12.074;2023-06-26T08:44:32;23.20;99.90
3628;DHT22;1830;49.000;12.074;2023-06-26T08:46:59;23.30;99.90
3628;DHT22;1830;49.000;12.074;2023-06-26T08:49:34;23.40;99.90
3628;DHT22;1830;49.000;12.074;2023-06-26T08:52:10;23.50;99.90
3628;DHT22;1830;49.000;12.074;2023-06-26T08:54:42;23.60;99.90
3628;DHT22;1830;49.000;12.074;2023-06-26T08:57:10;23.70;99.90
3628;DHT22;1830;49.000;12.074;2023-06-26T08:59:38;23.80;99.60
3628;DHT22;1830;49.000;12.074;2023-06-26T09:02:05;23.90;99.90
3628;DHT22;1830;49.000;12.074;2023-06-26T09:04:32;24.00;99.70
3628;DHT22;1830;49.000;12.074;2023-06-26T09:06:59;24.10;99.50
3628;DHT22;1830;49.000;12.074;2023-06-26T09:09:28;24.10;99.00
3628;DHT22;1830;49.000;12.074;2023-06-26T09:11:55;24.20;99.70
3628;DHT22;1830;49.000;12.074;2023-06-26T09:14:22;24.30;98.70
3628;DHT22;1830;49.000;12.074;2023-06-26T09:16:49;24.30;97.00
3628;DHT22;1830;49.000;12.074;2023-06-26T09:19:16;24.40;97.20
3628;DHT22;1830;49.000;12.074;2023-06-26T09:21:43;24.50;98.30
3628;DHT22;1830;49.000;12.074;2023-06-26T09:24:10;24.60;98.50
3628;DHT22;1830;49.000;12.074;2023-06-26T09:26:40;24.70;97.50
3628;DHT22;1830;49.000;12.074;2023-06-26T09:29:07;24.90;95.70
3628;DHT22;1830;49.000;12.074;2023-06-26T09:31:35;25.00;94.80
3628;DHT22;1830;49.000;12.074;2023-06-26T09:34:03;24.90;93.10
3628;DHT22;1830;49.000;12.074;2023-06-26T09:36:31;25.00;92.10
3628;DHT22;1830;49.000;12.074;2023-06-26T09:38:59;25.20;92.80
3628;DHT22;1830;49.000;12.074;2023-06-26T09:41:26;25.30;91.50
3628;DHT22;1830;49.000;12.074;2023-06-26T09:44:00;25.30;91.00
3628;DHT22;1830;49.000;12.074;2023-06-26T09:46:29;25.30;90.50
3628;DHT22;1830;49.000;12.074;2023-06-26T09:49:01;25.40;90.20
3628;DHT22;1830;49.000;12.074;2023-06-26T09:51:30;25.50;90.70
3628;DHT22;1830;49.000;12.074;2023-06-26T09:53:57;25.70;90.20
3628;DHT22;1830;49.000;12.074;2023-06-26T09:56:24;25.80;90.70
3628;DHT22;1830;49.000;12.074;2023-06-26T09:58:51;26.10;90.40
3628;DHT22;1830;49.000;12.074;2023-06-26T10:01:20;26.10;89.60
3628;DHT22;1830;49.000;12.074;2023-06-26T10:03:47;26.30;88.80
3628;DHT22;1830;49.000;12.074;2023-06-26T10:06:15;26.20;85.50
3628;DHT22;1830;49.000;12.074;2023-06-26T10:08:45;26.20;86.00
3628;DHT22;1830;49.000;12.074;2023-06-26T10:11:16;26.30;86.60
3628;DHT22;1830;49.000;12.074;2023-06-26T10:13:43;26.20;85.90
3628;DHT22;1830;49.000;12.074;2023-06-26T10:16:13;26.30;85.50
3628;DHT22;1830;49.000;12.074;2023-06-26T10:18:45;26.40;86.60
3628;DHT22;1830;49.000;12.074;2023-06-26T10:21:12;26.40;84.10
3628;DHT22;1830;49.000;12.074;2023-06-26T10:23:40;26.50;85.40
3628;DHT22;1830;49.000;12.074;2023-06-26T10:26:09;26.70;84.00
3628;DHT22;1830;49.000;12.074;2023-06-26T10:28:38;26.80;84.30
3628;DHT22;1830;49.000;12.074;2023-06-26T10:31:07;26.80;81.40
3628;DHT22;1830;49.000;12.074;2023-06-26T10:33:36;26.90;79.60
3628;DHT22;1830;49.000;12.074;2023-06-26T10:36:20;26.90;77.10
3628;DHT22;1830;49.000;12.074;2023-06-26T10:38:56;27.00;77.40
3628;DHT22;1830;49.000;12.074;2023-06-26T10:41:23;27.00;76.20
3628;DHT22;1830;49.000;12.074;2023-06-26T10:43:51;27.10;76.40
3628;DHT22;1830;49.000;12.074;2023-06-26T10:46:18;27.20;77.20
3628;DHT22;1830;49.000;12.074;2023-06-26T10:48:59;27.30;77.10
3628;DHT22;1830;49.000;12.074;2023-06-26T10:51:28;27.50;75.30
3628;DHT22;1830;49.000;12.074;2023-06-26T10:53:55;27.60;73.30
3628;DHT22;1830;49.000;12.074;2023-06-26T10:56:41;27.60;73.60
3628;DHT22;1830;49.000;12.074;2023-06-26T10:59:15;27.80;75.50
3628;DHT22;1830;49.000;12.074;2023-06-26T11:01:43;27.90;75.10
3628;DHT22;1830;49.000;12.074;2023-06-26T11:04:11;28.00;73.90
3628;DHT22;1830;49.000;12.074;2023-06-26T11:06:41;28.00;71.70
3628;DHT22;1830;49.000;12.074;2023-06-26T11:09:10;28.10;71.50
3628;DHT22;1830;49.000;12.074;2023-06-26T11:11:57;28.20;72.10
3628;DHT22;1830;49.000;12.074;2023-06-26T11:14:31;28.40;73.30
3628;DHT22;1830;49.000;12.074;2023-06-26T11:16:59;28.70;71.30
3628;DHT22;1830;49.000;12.074;2023-06-26T11:19:28;28.50;67.00
3628;DHT22;1830;49.000;12.074;2023-06-26T11:22:01;28.60;68.00
3628;DHT22;1830;49.000;12.074;2023-06-26T11:24:29;28.80;66.70
3628;DHT22;1830;49.000;12.074;2023-06-26T11:27:00;28.90;65.80
3628;DHT22;1830;49.000;12.074;2023-06-26T11:29:27;29.00;65.80
3628;DHT22;1830;49.000;12.074;2023-06-26T11:32:02;29.10;67.30
3628;DHT22;1830;49.000;12.074;2023-06-26T11:34:31;29.20;67.80
3628;DHT22;1830;49.000;12.074;2023-06-26T11:37:00;29.40;68.20
3628;DHT22;1830;49.000;12.074;2023-06-26T11:39:29;29.60;69.40
3628;DHT22;1830;49.000;12.074;2023-06-26T11:41:57;29.60;67.70
3628;DHT22;1830;49.000;12.074;2023-06-26T11:44:24;29.50;68.70
3628;DHT22;1830;49.000;12.074;2023-06-26T11:46:54;29.50;67.90
3628;DHT22;1830;49.000;12.074;2023-06-26T11:49:22;29.60;68.10
3628;DHT22;1830;49.000;12.074;2023-06-26T11:51:51;29.70;68.60
3628;DHT22;1830;49.000;12.074;2023-06-26T11:54:25;29.70;68.00
3628;DHT22;1830;49.000;12.074;2023-06-26T11:56:57;29.80;68.90
3628;DHT22;1830;49.000;12.074;2023-06-26T11:59:32;29.80;67.00
3628;DHT22;1830;49.000;12.074;2023-06-26T12:01:59;29.90;66.90
3628;DHT22;1830;49.000;12.074;2023-06-26T12:04:26;30.10;67.30
3628;DHT22;1830;49.000;12.074;2023-06-26T12:06:55;29.80;65.50
3628;DHT22;1830;49.000;12.074;2023-06-26T12:09:24;29.60;65.20
3628;DHT22;1830;49.000;12.074;2023-06-26T12:11:53;29.90;65.80
3628;DHT22;1830;49.000;12.074;2023-06-26T12:14:22;29.60;64.60
3628;DHT22;1830;49.000;12.074;2023-06-26T12:16:49;29.30;65.00
3628;DHT22;1830;49.000;12.074;2023-06-26T12:19:16;29.30;65.40
3628;DHT22;1830;49.000;12.074;2023-06-26T12:21:47;29.40;65.90
3628;DHT22;1830;49.000;12.074;2023-06-26T12:24:19;29.10;64.90
3628;DHT22;1830;49.000;12.074;2023-06-26T12:26:50;29.00;66.20
3628;DHT22;1830;49.000;12.074;2023-06-26T12:29:17;29.10;67.40
3628;DHT22;1830;49.000;12.074;2023-06-26T12:31:49;29.20;68.00
3628;DHT22;1830;49.000;12.074;2023-06-26T12:34:20;29.50;69.40
3628;DHT22;1830;49.000;12.074;2023-06-26T12:36:48;29.50;67.80
3628;DHT22;1830;49.000;12.074;2023-06-26T12:39:16;29.50;70.20
3628;DHT22;1830;49.000;12.074;2023-06-26T12:41:48;29.70;69.50
3628;DHT22;1830;49.000;12.074;2023-06-26T12:44:19;30.10;67.90
3628;DHT22;1830;49.000;12.074;2023-06-26T12:46:47;30.40;66.80
3628;DHT22;1830;49.000;12.074;2023-06-26T12:49:14;30.50;62.80
3628;DHT22;1830;49.000;12.074;2023-06-26T12:51:41;30.80;62.40
3628;DHT22;1830;49.000;12.074;2023-06-26T12:54:09;31.00;60.90
3628;DHT22;1830;49.000;12.074;2023-06-26T12:56:36;31.10;59.20
3628;DHT22;1830;49.000;12.074;2023-06-26T12:59:04;31.20;59.30
3628;DHT22;1830;49.000;12.074;2023-06-26T13:01:30;31.40;59.30
3628;DHT22;1830;49.000;12.074;2023-06-26T13:03:58;31.60;59.40
3628;DHT22;1830;49.000;12.074;2023-06-26T13:06:24;31.60;58.60
3628;DHT22;1830;49.000;12.074;2023-06-26T13:08:51;31.70;58.40
3628;DHT22;1830;49.000;12.074;2023-06-26T13:11:18;31.80;57.80
3628;DHT22;1830;49.000;12.074;2023-06-26T13:13:46;31.70;58.60
3628;DHT22;1830;49.000;12.074;2023-06-26T13:16:14;31.70;58.50
3628;DHT22;1830;49.000;12.074;2023-06-26T13:18:41;31.80;57.90
3628;DHT22;1830;49.000;12.074;2023-06-26T13:21:08;31.80;58.80
3628;DHT22;1830;49.000;12.074;2023-06-26T13:23:35;31.80;59.30
3628;DHT22;1830;49.000;12.074;2023-06-26T13:26:02;31.80;58.80
3628;DHT22;1830;49.000;12.074;2023-06-26T13:28:29;31.40;59.80
3628;DHT22;1830;49.000;12.074;2023-06-26T13:30:55;30.90;59.30
3628;DHT22;1830;49.000;12.074;2023-06-26T13:33:23;31.20;59.60
3628;DHT22;1830;49.000;12.074;2023-06-26T13:35:51;31.40;61.20
3628;DHT22;1830;49.000;12.074;2023-06-26T13:38:19;31.60;60.40
3628;DHT22;1830;49.000;12.074;2023-06-26T13:40:50;31.80;58.90
3628;DHT22;1830;49.000;12.074;2023-06-26T13:43:17;31.80;57.20
3628;DHT22;1830;49.000;12.074;2023-06-26T13:45:43;32.00;58.40
3628;DHT22;1830;49.000;12.074;2023-06-26T13:48:10;32.20;57.90
3628;DHT22;1830;49.000;12.074;2023-06-26T13:50:39;32.30;56.90
3628;DHT22;1830;49.000;12.074;2023-06-26T13:53:06;32.40;56.50
3628;DHT22;1830;49.000;12.074;2023-06-26T13:55:34;32.40;55.60
3628;DHT22;1830;49.000;12.074;2023-06-26T13:58:00;32.40;56.00
3628;DHT22;1830;49.000;12.074;2023-06-26T14:00:30;32.40;55.50
3628;DHT22;1830;49.000;12.074;2023-06-26T14:02:57;32.50;56.10
3628;DHT22;1830;49.000;12.074;2023-06-26T14:05:24;32.10;56.30
3628;DHT22;1830;49.000;12.074;2023-06-26T14:07:52;32.20;56.40
3628;DHT22;1830;49.000;12.074;2023-06-26T14:10:19;32.30;56.40
3628;DHT22;1830;49.000;12.074;2023-06-26T14:12:46;32.40;55.30
3628;DHT22;1830;49.000;12.074;2023-06-26T14:15:13;32.40;54.20
3628;DHT22;1830;49.000;12.074;2023-06-26T14:17:40;32.00;54.80
3628;DHT22;1830;49.000;12.074;2023-06-26T14:20:07;31.70;55.20
3628;DHT22;1830;49.000;12.074;2023-06-26T14:22:35;31.60;55.60
3628;DHT22;1830;49.000;12.074;2023-06-26T14:25:04;31.70;55.90
3628;DHT22;1830;49.000;12.074;2023-06-26T14:27:31;31.80;56.30
3628;DHT22;1830;49.000;12.074;2023-06-26T14:29:58;32.00;57.10
3628;DHT22;1830;49.000;12.074;2023-06-26T14:32:25;32.00;56.30
3628;DHT22;1830;49.000;12.074;2023-06-26T14:34:51;32.10;55.00
3628;DHT22;1830;49.000;12.074;2023-06-26T14:37:18;32.20;54.30
3628;DHT22;1830;49.000;12.074;2023-06-26T14:39:45;31.80;54.50
3628;DHT22;1830;49.000;12.074;2023-06-26T14:42:13;31.50;54.30
3628;DHT22;1830;49.000;12.074;2023-06-26T14:44:40;31.30;55.00
3628;DHT22;1830;49.000;12.074;2023-06-26T14:47:07;31.10;55.30
3628;DHT22;1830;49.000;12.074;2023-06-26T14:49:34;31.20;55.70
3628;DHT22;1830;49.000;12.074;2023-06-26T14:52:00;31.00;55.40
3628;DHT22;1830;49.000;12.074;2023-06-26T14:54:27;31.20;55.90
3628;DHT22;1830;49.000;12.074;2023-06-26T14:56:54;31.20;56.40
3628;DHT22;1830;49.000;12.074;2023-06-26T14:59:22;31.10;56.90
3628;DHT22;1830;49.000;12.074;2023-06-26T15:01:49;31.00;58.20
3628;DHT22;1830;49.000;12.074;2023-06-26T15:04:15;30.80;56.90
3628;DHT22;1830;49.000;12.074;2023-06-26T15:06:42;30.80;56.80
3628;DHT22;1830;49.000;12.074;2023-06-26T15:09:09;30.90;56.90
3628;DHT22;1830;49.000;12.074;2023-06-26T15:11:36;31.00;57.90
3628;DHT22;1830;49.000;12.074;2023-06-26T15:14:02;31.10;57.20
3628;DHT22;1830;49.000;12.074;2023-06-26T15:16:30;31.30;57.10
3628;DHT22;1830;49.000;12.074;2023-06-26T15:18:57;31.30;56.00
3628;DHT22;1830;49.000;12.074;2023-06-26T15:21:24;31.20;56.60
3628;DHT22;1830;49.000;12.074;2023-06-26T15:23:51;31.40;55.20
3628;DHT22;1830;49.000;12.074;2023-06-26T15:26:18;31.50;55.40
3628;DHT22;1830;49.000;12.074;2023-06-26T15:28:44;31.40;55.40
3628;DHT22;1830;49.000;12.074;2023-06-26T15:31:12;31.50;56.20
3628;DHT22;1830;49.000;12.074;2023-06-26T15:33:40;31.40;57.40
3628;DHT22;1830;49.000;12.074;2023-06-26T15:36:07;31.30;56.60
3628;DHT22;1830;49.000;12.074;2023-06-26T15:38:33;31.10;56.70
3628;DHT22;1830;49.000;12.074;2023-06-26T15:41:00;31.20;56.70
3628;DHT22;1830;49.000;12.074;2023-06-26T15:43:28;31.10;56.80
3628;DHT22;1830;49.000;12.074;2023-06-26T15:45:55;30.90;57.60
3628;DHT22;1830;49.000;12.074;2023-06-26T15:48:21;30.80;57.40